createdAt,value
2022-09-26T00:01:28.048Z,9.60
2022-09-26T00:04:24.136Z,9.60
2022-09-26T00:07:10.684Z,9.60
2022-09-26T00:09:56.178Z,9.60
2022-09-26T00:12:41.689Z,9.50
2022-09-26T00:15:27.355Z,9.50
2022-09-26T00:18:12.527Z,9.50
2022-09-26T00:21:07.425Z,9.50
2022-09-26T00:36:49.005Z,9.40
2022-09-26T00:39:34.456Z,9.30
2022-09-26T00:42:22.646Z,9.30
2022-09-26T00:45:09.331Z,9.30
2022-09-26T00:52:21.244Z,9.40
2022-09-26T00:55:09.001Z,9.40
2022-09-26T00:57:59.864Z,9.40
2022-09-26T01:00:48.258Z,9.40
2022-09-26T01:03:36.053Z,9.50
2022-09-26T01:06:21.807Z,9.50
2022-09-26T01:09:09.111Z,9.50
2022-09-26T01:11:55.364Z,9.60
2022-09-26T01:14:41.714Z,9.50
2022-09-26T01:17:28.096Z,9.50
2022-09-26T01:21:04.263Z,9.40
2022-09-26T01:23:52.494Z,9.40
2022-09-26T01:27:11.633Z,9.30
2022-09-26T01:30:07.610Z,9.30
2022-09-26T01:33:11.114Z,9.30
2022-09-26T01:35:59.302Z,9.20
2022-09-26T01:39:11.083Z,9.20
2022-09-26T01:42:28.709Z,9.10
2022-09-26T01:45:19.187Z,9.00
2022-09-26T01:56:46.529Z,9.10
2022-09-26T01:59:42.167Z,9.00
2022-09-26T02:02:32.987Z,9.00
2022-09-26T02:05:33.284Z,8.90
2022-09-26T02:08:26.436Z,8.90
2022-09-26T02:11:19.166Z,8.90
2022-09-26T02:14:08.475Z,8.80
2022-09-26T02:16:59.847Z,8.80
2022-09-26T02:19:59.099Z,8.80
2022-09-26T02:22:44.744Z,8.80
2022-09-26T02:25:30.927Z,8.80
2022-09-26T02:28:16.395Z,8.70
2022-09-26T02:31:04.978Z,8.70
2022-09-26T02:33:52.137Z,8.60
2022-09-26T02:36:38.297Z,8.70
2022-09-26T02:39:24.373Z,8.60
2022-09-26T02:42:16.952Z,8.60
2022-09-26T02:45:16.919Z,8.60
2022-09-26T02:48:08.156Z,8.50
2022-09-26T02:55:50.559Z,8.40
2022-09-26T02:58:45.683Z,8.30
2022-09-26T03:01:46.476Z,8.30
2022-09-26T03:04:44.394Z,8.20
2022-09-26T03:07:33.686Z,8.20
2022-09-26T03:10:20.618Z,8.20
2022-09-26T03:13:10.572Z,8.20
2022-09-26T03:15:59.753Z,8.20
2022-09-26T03:18:54.263Z,8.10
2022-09-26T03:21:39.602Z,8.00
2022-09-26T03:24:26.668Z,8.00
2022-09-26T03:27:14.473Z,7.90
2022-09-26T03:29:59.764Z,8.00
2022-09-26T03:32:45.201Z,8.00
2022-09-26T03:35:30.759Z,8.10
2022-09-26T03:38:16.582Z,8.10
2022-09-26T03:41:02.813Z,8.00
2022-09-26T03:43:49.005Z,8.10
2022-09-26T03:46:39.097Z,8.00
2022-09-26T03:54:22.312Z,8.00
2022-09-26T03:57:07.563Z,8.00
2022-09-26T03:59:55.219Z,8.00
2022-09-26T04:02:40.535Z,8.10
2022-09-26T04:05:26.943Z,8.10
2022-09-26T04:08:12.584Z,8.10
2022-09-26T04:11:06.257Z,8.10
2022-09-26T04:13:53.652Z,8.10
2022-09-26T04:16:40.003Z,8.20
2022-09-26T04:19:26.642Z,8.30
2022-09-26T04:22:12.191Z,8.30
2022-09-26T04:24:57.545Z,8.30
2022-09-26T04:27:43.408Z,8.30
2022-09-26T04:30:30.222Z,8.30
2022-09-26T04:33:15.907Z,8.30
2022-09-26T04:36:09.419Z,8.20
2022-09-26T04:38:55.066Z,8.20
2022-09-26T04:41:40.314Z,8.20
2022-09-26T04:44:25.688Z,8.20
2022-09-26T04:47:11.366Z,8.20
2022-09-26T04:54:10.341Z,8.20
2022-09-26T04:56:55.915Z,8.20
2022-09-26T04:59:41.317Z,8.20
2022-09-26T05:02:26.948Z,8.30
2022-09-26T05:05:12.747Z,8.30
2022-09-26T05:07:58.248Z,8.40
2022-09-26T05:10:44.096Z,8.40
2022-09-26T05:13:29.836Z,8.40
2022-09-26T05:16:16.028Z,8.40
2022-09-26T05:19:01.517Z,8.40
2022-09-26T05:21:47.220Z,8.40
2022-09-26T05:24:51.082Z,8.50
2022-09-26T05:27:36.569Z,8.50
2022-09-26T05:30:22.137Z,8.50
2022-09-26T05:33:08.045Z,8.50
2022-09-26T05:35:54.780Z,8.50
2022-09-26T05:38:40.283Z,8.50
2022-09-26T05:41:31.168Z,8.60
2022-09-26T05:44:16.502Z,8.60
2022-09-26T05:47:02.297Z,8.60
2022-09-26T05:49:47.507Z,8.60
2022-09-26T05:52:32.956Z,8.60
2022-09-26T05:55:18.609Z,8.60
2022-09-26T05:58:05.646Z,8.60
2022-09-26T06:00:51.616Z,8.60
2022-09-26T06:03:38.086Z,8.50
2022-09-26T06:06:23.386Z,8.50
2022-09-26T06:09:08.992Z,8.50
2022-09-26T06:11:54.674Z,8.50
2022-09-26T06:14:46.747Z,8.50
2022-09-26T06:17:32.368Z,8.50
2022-09-26T06:20:18.056Z,8.50
2022-09-26T06:23:04.241Z,8.60
2022-09-26T06:25:50.065Z,8.60
2022-09-26T06:28:36.603Z,8.60
2022-09-26T06:31:23.466Z,8.70
2022-09-26T06:34:08.639Z,8.80
2022-09-26T06:36:53.981Z,8.80
2022-09-26T06:39:40.132Z,8.90
2022-09-26T06:42:25.788Z,9.00
2022-09-26T06:45:11.601Z,9.00
2022-09-26T06:48:02.246Z,9.00
2022-09-26T06:55:44.899Z,9.10
2022-09-26T06:58:30.389Z,9.30
2022-09-26T07:01:15.932Z,9.40
2022-09-26T07:04:02.061Z,9.50
2022-09-26T07:06:47.490Z,9.60
2022-09-26T07:09:33.753Z,9.70
2022-09-26T07:12:19.562Z,9.80
2022-09-26T07:15:05.397Z,9.90
2022-09-26T07:17:51.131Z,10.00
2022-09-26T07:20:40.127Z,10.10
2022-09-26T07:23:25.386Z,10.20
2022-09-26T07:26:11.136Z,10.40
2022-09-26T07:28:56.560Z,10.40
2022-09-26T07:31:42.174Z,10.50
2022-09-26T07:34:27.809Z,10.60
2022-09-26T07:37:13.203Z,10.80
2022-09-26T07:40:01.619Z,10.80
2022-09-26T07:43:09.331Z,10.90
2022-09-26T07:46:11.910Z,11.00
2022-09-26T07:49:15.566Z,11.10
2022-09-26T07:52:11.170Z,11.20
2022-09-26T07:54:56.827Z,11.30
2022-09-26T07:57:42.167Z,11.40
2022-09-26T08:00:30.243Z,11.40
2022-09-26T08:03:15.897Z,11.40
2022-09-26T08:06:01.938Z,11.40
2022-09-26T08:08:48.255Z,11.40
2022-09-26T08:11:34.156Z,11.70
2022-09-26T08:14:19.517Z,11.90
2022-09-26T08:17:05.132Z,12.00
2022-09-26T08:19:50.738Z,12.00
2022-09-26T08:22:36.254Z,12.10
2022-09-26T08:25:22.129Z,12.20
2022-09-26T08:28:09.893Z,12.30
2022-09-26T08:31:00.399Z,12.50
2022-09-26T08:33:45.966Z,12.90
2022-09-26T08:36:32.915Z,13.20
2022-09-26T08:39:18.051Z,13.60
2022-09-26T08:42:29.565Z,14.40
2022-09-26T08:46:28.593Z,14.60
2022-09-26T08:49:50.208Z,14.90
2022-09-26T08:57:32.874Z,15.70
2022-09-26T09:00:21.498Z,15.40
2022-09-26T09:03:43.629Z,15.70
2022-09-26T09:06:29.411Z,15.70
2022-09-26T09:09:16.938Z,15.70
2022-09-26T09:12:08.446Z,15.60
2022-09-26T09:15:25.388Z,15.60
2022-09-26T09:18:38.683Z,15.80
2022-09-26T09:22:01.857Z,15.50
2022-09-26T09:25:11.960Z,14.90
2022-09-26T09:28:16.005Z,14.70
2022-09-26T09:31:08.944Z,14.50
2022-09-26T09:34:00.374Z,14.70
2022-09-26T09:36:49.691Z,14.50
2022-09-26T09:39:42.390Z,14.90
2022-09-26T09:42:40.802Z,15.30
2022-09-26T09:45:32.924Z,15.60
2022-09-26T09:48:18.859Z,15.60
2022-09-26T09:51:13.358Z,15.50
2022-09-26T09:54:23.617Z,15.70
2022-09-26T09:57:27.086Z,15.50
2022-09-26T10:00:24.037Z,15.00
2022-09-26T10:03:40.202Z,14.70
2022-09-26T10:06:45.747Z,14.40
2022-09-26T10:09:53.353Z,14.50
2022-09-26T10:12:39.267Z,14.60
2022-09-26T10:15:27.607Z,14.60
2022-09-26T10:18:25.289Z,14.60
2022-09-26T10:21:17.887Z,14.50
2022-09-26T10:24:04.761Z,14.20
2022-09-26T10:26:50.877Z,14.50
2022-09-26T10:29:37.609Z,14.80
2022-09-26T10:32:23.022Z,14.90
2022-09-26T10:35:19.693Z,15.10
2022-09-26T10:38:15.505Z,14.90
2022-09-26T10:41:03.337Z,14.90
2022-09-26T10:43:54.714Z,15.10
2022-09-26T10:46:45.260Z,15.10
2022-09-26T10:49:40.910Z,14.90
2022-09-26T10:56:28.151Z,14.50
2022-09-26T10:59:16.235Z,14.20
2022-09-26T11:02:03.705Z,14.10
2022-09-26T11:05:13.590Z,14.10
2022-09-26T11:07:59.159Z,14.20
2022-09-26T11:10:46.639Z,14.30
2022-09-26T11:13:46.623Z,14.70
2022-09-26T11:16:48.434Z,15.50
2022-09-26T11:19:53.824Z,15.30
2022-09-26T11:22:53.281Z,15.30
2022-09-26T11:26:23.276Z,14.90
2022-09-26T11:29:19.071Z,14.90
2022-09-26T11:32:05.514Z,14.90
2022-09-26T11:34:54.319Z,15.00
2022-09-26T11:38:03.438Z,15.10
2022-09-26T11:41:16.305Z,15.30
2022-09-26T11:44:20.675Z,15.50
2022-09-26T11:47:13.867Z,15.40
2022-09-26T11:50:35.638Z,15.20
2022-09-26T11:54:27.322Z,15.20
2022-09-26T11:57:12.725Z,15.20
2022-09-26T12:00:15.738Z,15.60
2022-09-26T12:03:39.192Z,15.50
2022-09-26T12:06:36.584Z,15.50
2022-09-26T12:09:51.862Z,15.30
2022-09-26T12:12:48.598Z,15.40
2022-09-26T12:15:39.344Z,15.30
2022-09-26T12:18:53.196Z,15.10
2022-09-26T12:22:15.384Z,15.10
2022-09-26T12:25:37.207Z,14.90
2022-09-26T12:28:51.324Z,14.60
2022-09-26T12:32:01.549Z,14.30
2022-09-26T12:35:02.178Z,14.10
2022-09-26T12:38:15.710Z,13.90
2022-09-26T12:41:28.228Z,13.60
2022-09-26T12:44:22.747Z,13.60
2022-09-26T12:47:33.164Z,13.70
2022-09-26T12:50:56.862Z,13.90
2022-09-26T12:54:15.833Z,14.10
2022-09-26T12:57:24.249Z,14.30
2022-09-26T13:00:16.784Z,14.40
2022-09-26T13:03:28.095Z,14.60
2022-09-26T13:06:32.078Z,14.60
2022-09-26T13:09:44.255Z,14.60
2022-09-26T13:12:51.350Z,14.60
2022-09-26T13:16:15.103Z,14.70
2022-09-26T13:19:10.439Z,14.60
2022-09-26T13:22:01.705Z,14.50
2022-09-26T13:25:07.526Z,14.50
2022-09-26T13:28:05.035Z,14.40
2022-09-26T13:30:59.813Z,14.30
2022-09-26T13:34:04.865Z,14.40
2022-09-26T13:36:51.264Z,14.30
2022-09-26T13:39:50.715Z,14.40
2022-09-26T13:42:47.544Z,14.50
2022-09-26T13:45:50.794Z,14.60
2022-09-26T13:49:00.903Z,14.60
2022-09-26T13:52:19.013Z,14.50
2022-09-26T13:56:00.879Z,14.50
2022-09-26T13:58:46.420Z,14.40
2022-09-26T14:01:33.658Z,14.50
2022-09-26T14:04:32.875Z,14.50
2022-09-26T14:07:59.060Z,14.50
2022-09-26T14:10:53.597Z,14.50
2022-09-26T14:13:39.003Z,14.60
2022-09-26T14:16:27.645Z,14.60
2022-09-26T14:19:36.774Z,14.70
2022-09-26T14:22:25.055Z,14.90
2022-09-26T14:25:45.923Z,14.90
2022-09-26T14:28:34.933Z,14.90
2022-09-26T14:31:36.391Z,14.90
2022-09-26T14:34:23.743Z,14.80
2022-09-26T14:37:24.606Z,14.80
2022-09-26T14:40:09.888Z,14.70
2022-09-26T14:43:14.835Z,14.60
2022-09-26T14:46:06.931Z,14.60
2022-09-26T14:49:02.408Z,14.50
2022-09-26T14:51:50.859Z,14.60
2022-09-26T14:54:40.281Z,14.60
2022-09-26T15:02:41.875Z,14.60
2022-09-26T15:05:28.112Z,14.60
2022-09-26T15:08:30.104Z,14.60
2022-09-26T15:12:01.185Z,14.60
2022-09-26T15:15:24.520Z,14.70
2022-09-26T15:18:28.301Z,14.80
2022-09-26T15:21:29.340Z,14.70
2022-09-26T15:24:25.047Z,14.70
2022-09-26T15:27:19.055Z,14.60
2022-09-26T15:30:24.346Z,14.60
2022-09-26T15:33:20.144Z,14.60
2022-09-26T15:36:06.627Z,14.60
2022-09-26T15:38:52.532Z,14.50
2022-09-26T15:42:03.226Z,14.50
2022-09-26T15:44:55.420Z,14.50
2022-09-26T15:47:44.103Z,14.40
2022-09-26T15:50:48.068Z,14.40
2022-09-26T15:53:37.269Z,14.30
2022-09-26T15:57:19.339Z,14.20
2022-09-26T16:00:04.938Z,14.20
2022-09-26T16:02:50.797Z,14.10
2022-09-26T16:05:36.272Z,14.10
2022-09-26T16:08:24.960Z,14.00
2022-09-26T16:11:10.364Z,14.00
2022-09-26T16:13:56.704Z,13.90
2022-09-26T16:16:42.048Z,13.90
2022-09-26T16:19:35.043Z,13.90
2022-09-26T16:22:44.516Z,13.80
2022-09-26T16:25:31.456Z,13.80
2022-09-26T16:28:18.006Z,13.80
2022-09-26T16:31:08.148Z,13.80
2022-09-26T16:33:56.698Z,13.80
2022-09-26T16:36:45.077Z,13.70
2022-09-26T16:39:32.326Z,13.70
2022-09-26T16:42:17.720Z,13.60
2022-09-26T16:45:05.299Z,13.50
2022-09-26T16:47:50.902Z,13.40
2022-09-26T16:50:37.127Z,13.30
2022-09-26T16:53:22.423Z,13.20
2022-09-26T17:01:04.515Z,13.00
2022-09-26T17:03:50.350Z,12.90
2022-09-26T17:06:37.151Z,12.90
2022-09-26T17:09:28.126Z,12.80
2022-09-26T17:12:21.913Z,12.80
2022-09-26T17:15:12.491Z,12.70
2022-09-26T17:18:01.159Z,12.70
2022-09-26T17:20:46.989Z,12.70
2022-09-26T17:23:41.422Z,12.60
2022-09-26T17:26:27.974Z,12.60
2022-09-26T17:29:19.963Z,12.60
2022-09-26T17:32:12.036Z,12.60
2022-09-26T17:35:04.203Z,12.60
2022-09-26T17:37:49.977Z,12.60
2022-09-26T17:40:35.606Z,12.60
2022-09-26T17:43:23.924Z,12.50
2022-09-26T17:46:15.816Z,12.50
2022-09-26T17:49:05.186Z,12.50
2022-09-26T17:51:50.946Z,12.40
2022-09-26T17:54:40.751Z,12.20
2022-09-26T17:58:22.848Z,12.20
2022-09-26T18:01:09.019Z,12.00
2022-09-26T18:04:00.364Z,11.90
2022-09-26T18:06:46.104Z,11.90
2022-09-26T18:09:35.736Z,11.90
2022-09-26T18:12:22.539Z,11.80
2022-09-26T18:15:21.720Z,11.80
2022-09-26T18:18:14.933Z,11.70
2022-09-26T18:21:04.119Z,11.70
2022-09-26T18:23:56.956Z,11.70
2022-09-26T18:26:50.685Z,11.60
2022-09-26T18:29:39.013Z,11.60
2022-09-26T18:32:31.995Z,11.60
2022-09-26T18:35:20.226Z,11.50
2022-09-26T18:38:06.917Z,11.50
2022-09-26T18:40:58.507Z,11.40
2022-09-26T18:43:45.105Z,11.40
2022-09-26T18:46:30.903Z,11.40
2022-09-26T18:49:17.250Z,11.40
2022-09-26T18:52:02.980Z,11.50
2022-09-26T18:55:08.395Z,11.40
2022-09-26T19:02:50.651Z,11.40
2022-09-26T19:05:38.551Z,11.40
2022-09-26T19:08:33.592Z,11.30
2022-09-26T19:11:19.988Z,11.30
2022-09-26T19:14:21.227Z,11.20
2022-09-26T19:17:06.933Z,11.20
2022-09-26T19:19:52.484Z,11.20
2022-09-26T19:22:37.988Z,11.20
2022-09-26T19:25:23.546Z,11.30
2022-09-26T19:28:15.565Z,11.30
2022-09-26T19:31:01.766Z,11.20
2022-09-26T19:33:50.462Z,11.20
2022-09-26T19:36:36.091Z,11.20
2022-09-26T19:39:21.572Z,11.10
2022-09-26T19:42:07.321Z,11.20
2022-09-26T19:44:52.723Z,11.10
2022-09-26T19:47:41.391Z,11.10
2022-09-26T19:50:26.974Z,11.10
2022-09-26T19:53:21.365Z,11.10
2022-09-26T19:56:07.251Z,11.00
2022-09-26T19:59:49.035Z,11.00
2022-09-26T20:02:34.832Z,11.10
2022-09-26T20:05:23.864Z,11.00
2022-09-26T20:08:22.512Z,11.00
2022-09-26T20:11:08.291Z,11.00
2022-09-26T20:14:11.908Z,11.00
2022-09-26T20:17:26.696Z,11.00
2022-09-26T20:20:25.152Z,11.00
2022-09-26T20:23:19.950Z,11.00
2022-09-26T20:26:07.681Z,11.00
2022-09-26T20:28:53.791Z,11.00
2022-09-26T20:31:40.423Z,10.90
2022-09-26T20:34:26.913Z,10.90
2022-09-26T20:37:13.963Z,10.90
2022-09-26T20:40:00.253Z,10.90
2022-09-26T20:42:48.648Z,10.90
2022-09-26T20:45:40.057Z,10.90
2022-09-26T20:48:27.280Z,10.90
2022-09-26T20:51:22.946Z,10.90
2022-09-26T20:54:29.407Z,10.90
2022-09-26T20:57:19.530Z,10.90
2022-09-26T21:05:01.316Z,10.90
2022-09-26T21:07:47.195Z,10.90
2022-09-26T21:10:33.918Z,10.90
2022-09-26T21:13:19.188Z,10.90
2022-09-26T21:16:05.146Z,10.90
2022-09-26T21:18:52.413Z,10.90
2022-09-26T21:21:37.939Z,10.90
2022-09-26T21:24:29.850Z,10.90
2022-09-26T21:27:15.900Z,10.90
2022-09-26T21:30:01.370Z,10.90
2022-09-26T21:32:53.352Z,10.90
2022-09-26T21:35:38.809Z,10.80
2022-09-26T21:38:26.317Z,10.80
2022-09-26T21:41:12.309Z,10.80
2022-09-26T21:44:10.181Z,10.80
2022-09-26T21:46:55.645Z,10.80
2022-09-26T21:49:41.483Z,10.80
2022-09-26T21:52:41.563Z,10.80
2022-09-26T21:55:33.688Z,10.80
2022-09-26T22:03:15.379Z,10.70
2022-09-26T22:06:06.246Z,10.70
2022-09-26T22:08:52.815Z,10.70
2022-09-26T22:11:38.360Z,10.70
2022-09-26T22:14:24.122Z,10.70
2022-09-26T22:17:09.841Z,10.70
2022-09-26T22:19:55.435Z,10.70
2022-09-26T22:22:41.838Z,10.80
2022-09-26T22:25:28.113Z,10.80
2022-09-26T22:28:13.450Z,10.80
2022-09-26T22:31:04.244Z,10.70
2022-09-26T22:33:49.415Z,10.70
2022-09-26T22:36:34.978Z,10.70
2022-09-26T22:39:20.678Z,10.70
2022-09-26T22:42:07.472Z,10.70
2022-09-26T22:44:53.207Z,10.70
2022-09-26T22:47:38.572Z,10.70
2022-09-26T22:50:24.218Z,10.70
2022-09-26T22:53:09.994Z,10.70
2022-09-26T22:55:56.285Z,10.70
2022-09-26T22:59:38.405Z,10.60
2022-09-26T23:02:23.801Z,10.60
2022-09-26T23:05:09.644Z,10.60
2022-09-26T23:07:54.830Z,10.60
2022-09-26T23:10:48.427Z,10.70
2022-09-26T23:13:35.631Z,10.70
2022-09-26T23:16:23.466Z,10.80
2022-09-26T23:19:08.792Z,10.80
2022-09-26T23:25:08.284Z,10.70
2022-09-26T23:27:53.761Z,10.70
2022-09-26T23:30:39.359Z,10.70
2022-09-26T23:33:24.677Z,10.60
2022-09-26T23:36:11.005Z,10.70
2022-09-26T23:38:59.804Z,10.60
2022-09-26T23:41:45.280Z,10.60
2022-09-26T23:48:50.354Z,10.50
2022-09-26T23:51:36.116Z,10.50
2022-09-26T23:54:21.909Z,10.50
2022-09-26T23:57:07.141Z,10.50
2022-09-26T23:59:52.713Z,10.50
